createdAt,value
2023-04-01T00:01:32.267Z,0.90
2023-04-01T00:03:59.121Z,0.80
2023-04-01T00:06:25.906Z,0.87
2023-04-01T00:08:53.466Z,1.13
2023-04-01T00:11:20.863Z,0.90
2023-04-01T00:13:48.358Z,1.10
2023-04-01T00:16:21.574Z,0.70
2023-04-01T00:18:50.203Z,0.77
2023-04-01T00:21:17.444Z,1.00
2023-04-01T00:23:44.596Z,1.00
2023-04-01T00:26:12.892Z,0.60
2023-04-01T00:28:39.577Z,0.60
2023-04-01T00:31:10.797Z,0.70
2023-04-01T00:33:38.466Z,1.20
2023-04-01T00:36:17.840Z,0.40
2023-04-01T00:38:47.588Z,0.57
2023-04-01T00:41:16.459Z,0.60
2023-04-01T00:43:45.866Z,0.90
2023-04-01T00:46:12.689Z,0.60
2023-04-01T00:48:50.331Z,0.60
2023-04-01T00:51:21.283Z,0.60
2023-04-01T00:53:51.101Z,0.60
2023-04-01T00:56:27.739Z,0.67
2023-04-01T00:59:09.185Z,0.70
2023-04-01T01:01:36.689Z,0.63
2023-04-01T01:04:03.664Z,0.83
2023-04-01T01:06:47.834Z,0.70
2023-04-01T01:09:48.828Z,0.70
2023-04-01T01:12:19.715Z,0.40
2023-04-01T01:15:14.333Z,0.70
2023-04-01T01:17:54.511Z,0.80
2023-04-01T01:20:50.536Z,0.70
2023-04-01T01:24:03.600Z,0.80
2023-04-01T01:26:49.097Z,0.70
2023-04-01T01:29:41.341Z,0.73
2023-04-01T01:32:11.118Z,0.67
2023-04-01T01:34:56.198Z,0.50
2023-04-01T01:37:26.595Z,0.70
2023-04-01T01:39:57.873Z,0.50
2023-04-01T01:42:26.954Z,0.33
2023-04-01T01:44:56.190Z,0.47
2023-04-01T01:47:24.311Z,0.33
2023-04-01T01:49:53.946Z,0.50
2023-04-01T01:52:20.657Z,0.40
2023-04-01T01:54:55.461Z,0.50
2023-04-01T01:57:33.397Z,0.50
2023-04-01T02:00:13.732Z,0.40
2023-04-01T02:02:46.957Z,0.60
2023-04-01T02:05:21.758Z,0.50
2023-04-01T02:07:56.123Z,0.50
2023-04-01T02:10:26.496Z,0.57
2023-04-01T02:12:57.664Z,0.40
2023-04-01T02:15:27.117Z,0.60
2023-04-01T02:17:54.857Z,0.70
2023-04-01T02:20:23.998Z,0.30
2023-04-01T02:23:00.513Z,0.70
2023-04-01T02:25:34.942Z,0.60
2023-04-01T02:28:03.025Z,0.50
2023-04-01T02:30:32.662Z,0.50
2023-04-01T02:33:00.573Z,0.93
2023-04-01T02:35:27.368Z,0.50
2023-04-01T02:37:55.775Z,0.33
2023-04-01T02:40:22.487Z,0.50
2023-04-01T02:42:49.168Z,0.50
2023-04-01T02:45:16.043Z,0.47
2023-04-01T02:47:42.954Z,0.20
2023-04-01T02:50:10.878Z,0.33
2023-04-01T02:52:37.724Z,0.40
2023-04-01T02:55:05.539Z,0.40
2023-04-01T02:57:32.183Z,0.53
2023-04-01T02:59:59.138Z,0.30
2023-04-01T03:02:26.173Z,0.37
2023-04-01T03:04:53.087Z,0.70
2023-04-01T03:07:19.711Z,0.40
2023-04-01T03:09:46.375Z,0.30
2023-04-01T03:12:13.129Z,0.50
2023-04-01T03:14:39.726Z,0.60
2023-04-01T03:17:06.505Z,0.53
2023-04-01T03:19:33.160Z,0.77
2023-04-01T03:21:59.800Z,0.50
2023-04-01T03:24:26.460Z,0.80
2023-04-01T03:26:53.109Z,0.67
2023-04-01T03:29:19.819Z,0.50
2023-04-01T03:31:46.517Z,0.97
2023-04-01T03:34:13.144Z,0.70
2023-04-01T03:36:39.833Z,0.60
2023-04-01T03:39:06.630Z,0.50
2023-04-01T03:41:33.772Z,0.53
2023-04-01T03:44:00.466Z,0.60
2023-04-01T03:46:27.326Z,0.40
2023-04-01T03:48:53.962Z,0.53
2023-04-01T03:51:20.583Z,0.50
2023-04-01T03:53:47.393Z,0.60
2023-04-01T03:56:17.184Z,0.87
2023-04-01T03:58:43.850Z,0.93
2023-04-01T04:01:22.305Z,0.80
2023-04-01T04:03:50.607Z,0.50
2023-04-01T04:06:19.285Z,0.50
2023-04-01T04:08:46.265Z,0.70
2023-04-01T04:11:13.068Z,1.17
2023-04-01T04:13:39.744Z,0.70
2023-04-01T04:16:06.655Z,0.50
2023-04-01T04:18:34.089Z,0.60
2023-04-01T04:21:00.718Z,0.60
2023-04-01T04:23:28.052Z,0.83
2023-04-01T04:26:03.448Z,0.47
2023-04-01T04:28:30.771Z,0.60
2023-04-01T04:30:57.770Z,0.30
2023-04-01T04:33:25.387Z,0.73
2023-04-01T04:35:52.813Z,0.70
2023-04-01T04:38:19.448Z,0.50
2023-04-01T04:40:46.099Z,0.60
2023-04-01T04:43:13.899Z,0.67
2023-04-01T04:45:41.414Z,0.60
2023-04-01T04:48:10.145Z,0.50
2023-04-01T04:50:37.133Z,0.40
2023-04-01T04:53:04.126Z,0.50
2023-04-01T04:55:31.197Z,0.57
2023-04-01T04:57:58.274Z,0.50
2023-04-01T05:00:25.017Z,0.47
2023-04-01T05:02:51.708Z,0.40
2023-04-01T05:05:18.443Z,0.67
2023-04-01T05:07:45.191Z,0.50
2023-04-01T05:10:11.832Z,0.87
2023-04-01T05:12:39.754Z,0.40
2023-04-01T05:15:07.450Z,0.30
2023-04-01T05:17:34.419Z,0.53
2023-04-01T05:20:01.274Z,0.23
2023-04-01T05:22:28.169Z,0.40
2023-04-01T05:24:54.881Z,0.40
2023-04-01T05:27:21.688Z,0.40
2023-04-01T05:29:48.391Z,0.33
2023-04-01T05:32:15.854Z,0.50
2023-04-01T05:34:42.722Z,0.27
2023-04-01T05:37:09.446Z,0.53
2023-04-01T05:39:39.620Z,0.30
2023-04-01T05:42:09.452Z,0.50
2023-04-01T05:44:36.972Z,0.20
2023-04-01T05:47:04.563Z,0.37
2023-04-01T05:49:31.501Z,0.30
2023-04-01T05:51:58.369Z,0.70
2023-04-01T05:54:24.991Z,0.30
2023-04-01T05:56:51.806Z,0.20
2023-04-01T05:59:18.564Z,0.23
2023-04-01T06:01:45.283Z,0.50
2023-04-01T06:04:17.023Z,0.40
2023-04-01T06:06:43.730Z,0.20
2023-04-01T06:09:20.421Z,0.33
2023-04-01T06:12:28.230Z,0.40
2023-04-01T06:15:17.713Z,0.30
2023-04-01T06:18:25.703Z,0.13
2023-04-01T06:21:19.602Z,0.50
2023-04-01T06:24:20.108Z,0.33
2023-04-01T06:27:04.600Z,0.40
2023-04-01T06:29:49.184Z,0.40
2023-04-01T06:32:49.141Z,0.43
2023-04-01T06:35:42.629Z,0.90
2023-04-01T06:38:25.690Z,0.30
2023-04-01T06:41:17.268Z,0.60
2023-04-01T06:44:20.371Z,0.40
2023-04-01T06:47:00.548Z,0.50
2023-04-01T06:49:32.743Z,0.40
2023-04-01T06:52:17.554Z,0.37
2023-04-01T06:54:52.392Z,0.40
2023-04-01T06:57:32.030Z,0.30
2023-04-01T07:00:01.759Z,0.50
2023-04-01T07:02:46.335Z,0.43
2023-04-01T07:05:14.767Z,0.40
2023-04-01T07:07:49.724Z,0.43
2023-04-01T07:10:48.056Z,0.40
2023-04-01T07:13:28.139Z,0.20
2023-04-01T07:16:11.824Z,0.60
2023-04-01T07:18:52.997Z,0.20
2023-04-01T07:21:47.220Z,0.40
2023-04-01T07:24:22.912Z,0.50
2023-04-01T07:26:55.110Z,0.50
2023-04-01T07:29:21.774Z,0.23
2023-04-01T07:31:51.477Z,0.50
2023-04-01T07:34:29.173Z,0.30
2023-04-01T07:37:21.476Z,0.43
2023-04-01T07:40:06.940Z,0.50
2023-04-01T07:42:55.774Z,0.30
2023-04-01T07:45:39.526Z,0.43
2023-04-01T07:48:12.779Z,0.50
2023-04-01T07:50:50.524Z,0.43
2023-04-01T07:53:18.879Z,0.70
2023-04-01T07:56:11.494Z,0.50
2023-04-01T07:58:53.902Z,0.50
2023-04-01T08:02:00.256Z,0.40
2023-04-01T08:04:50.855Z,0.63
2023-04-01T08:07:36.920Z,0.40
2023-04-01T08:10:33.792Z,0.50
2023-04-01T08:13:45.301Z,0.50
2023-04-01T08:16:35.933Z,0.43
2023-04-01T08:19:02.628Z,0.27
2023-04-01T08:21:42.475Z,0.50
2023-04-01T08:24:37.172Z,0.30
2023-04-01T08:27:37.813Z,0.47
2023-04-01T08:30:24.865Z,0.40
2023-04-01T08:33:02.696Z,0.30
2023-04-01T08:35:37.676Z,0.40
2023-04-01T08:38:39.418Z,0.20
2023-04-01T08:41:26.345Z,0.23
2023-04-01T08:43:53.558Z,0.40
2023-04-01T08:46:26.822Z,0.40
2023-04-01T08:49:22.107Z,0.30
2023-04-01T08:52:24.640Z,0.23
2023-04-01T08:55:17.293Z,0.47
2023-04-01T08:58:00.279Z,0.30
2023-04-01T09:00:38.209Z,0.40
2023-04-01T09:03:39.506Z,0.20
2023-04-01T09:06:13.818Z,0.40
2023-04-01T09:09:10.314Z,0.30
2023-04-01T09:11:53.146Z,0.30
2023-04-01T09:14:28.914Z,0.23
2023-04-01T09:17:17.588Z,0.30
2023-04-01T09:20:03.026Z,0.50
2023-04-01T09:22:59.187Z,0.37
2023-04-01T09:25:39.673Z,0.30
2023-04-01T09:28:16.091Z,0.50
2023-04-01T09:30:57.563Z,0.43
2023-04-01T09:33:49.132Z,0.20
2023-04-01T09:36:34.754Z,0.30
2023-04-01T09:39:33.638Z,0.20
2023-04-01T09:42:31.443Z,0.20
2023-04-01T09:45:21.757Z,0.30
2023-04-01T09:47:58.516Z,0.20
2023-04-01T09:50:47.352Z,0.23
2023-04-01T09:53:18.736Z,0.20
2023-04-01T09:56:08.622Z,0.30
2023-04-01T09:59:04.353Z,0.10
2023-04-01T10:02:31.314Z,0.20
2023-04-01T10:05:31.623Z,0.20
2023-04-01T10:08:15.386Z,0.10
2023-04-01T10:11:06.969Z,0.20
2023-04-01T10:13:51.594Z,0.10
2023-04-01T10:16:18.307Z,0.20
2023-04-01T10:18:47.894Z,0.30
2023-04-01T10:21:20.982Z,0.20
2023-04-01T10:24:01.641Z,0.30
2023-04-01T10:26:43.333Z,0.30
2023-04-01T10:29:36.193Z,0.20
2023-04-01T10:32:30.342Z,0.50
2023-04-01T10:35:02.971Z,0.30
2023-04-01T10:37:54.040Z,0.30
2023-04-01T10:40:39.790Z,0.30
2023-04-01T10:43:24.419Z,0.30
2023-04-01T10:46:36.230Z,0.33
2023-04-01T10:49:03.017Z,0.50
2023-04-01T10:52:06.336Z,0.53
2023-04-01T10:54:41.006Z,0.60
2023-04-01T10:57:28.953Z,0.50
2023-04-01T11:00:01.529Z,0.47
2023-04-01T11:03:05.616Z,0.50
2023-04-01T11:05:51.303Z,0.60
2023-04-01T11:08:17.975Z,0.50
2023-04-01T11:10:51.101Z,0.53
2023-04-01T11:13:39.446Z,0.60
2023-04-01T11:16:18.664Z,0.60
2023-04-01T11:18:55.750Z,0.30
2023-04-01T11:21:31.301Z,0.53
2023-04-01T11:24:09.750Z,0.40
2023-04-01T11:27:12.289Z,1.10
2023-04-01T11:30:20.633Z,0.43
2023-04-01T11:33:02.789Z,0.60
2023-04-01T11:35:50.788Z,0.33
2023-04-01T11:38:43.973Z,0.43
2023-04-01T11:41:41.474Z,0.50
2023-04-01T11:44:20.884Z,0.67
2023-04-01T11:47:09.298Z,0.50
2023-04-01T11:49:44.942Z,0.57
2023-04-01T11:52:45.326Z,0.50
2023-04-01T11:55:39.820Z,0.57
2023-04-01T11:58:43.532Z,0.30
2023-04-01T12:01:44.156Z,0.40
2023-04-01T12:04:29.311Z,0.27
2023-04-01T12:07:05.346Z,0.20
2023-04-01T12:09:44.033Z,0.33
2023-04-01T12:12:19.305Z,0.40
2023-04-01T12:14:56.434Z,0.20
2023-04-01T12:17:48.051Z,0.20
2023-04-01T12:20:50.431Z,0.50
2023-04-01T12:23:48.509Z,0.40
2023-04-01T12:26:34.043Z,0.50
2023-04-01T12:29:25.761Z,0.30
2023-04-01T12:32:07.434Z,0.40
2023-04-01T12:35:31.846Z,0.40
2023-04-01T12:38:17.883Z,0.30
2023-04-01T12:41:09.947Z,0.47
2023-04-01T12:43:42.342Z,0.20
2023-04-01T12:46:45.833Z,0.17
2023-04-01T12:49:28.314Z,0.10
2023-04-01T12:51:59.643Z,0.37
2023-04-01T12:54:53.944Z,0.30
2023-04-01T12:57:42.128Z,0.20
2023-04-01T13:01:10.171Z,0.30
2023-04-01T13:04:11.494Z,0.40
2023-04-01T13:06:56.933Z,0.30
2023-04-01T13:09:38.169Z,0.30
2023-04-01T13:12:17.520Z,0.20
2023-04-01T13:15:08.276Z,0.20
2023-04-01T13:17:42.839Z,0.10
2023-04-01T13:20:37.699Z,0.30
2023-04-01T13:23:32.075Z,0.30
2023-04-01T13:26:13.609Z,0.20
2023-04-01T13:29:13.717Z,0.10
2023-04-01T13:31:55.378Z,0.20
2023-04-01T13:34:37.277Z,0.23
2023-04-01T13:37:10.273Z,0.20
2023-04-01T13:40:05.559Z,0.30
2023-04-01T13:42:54.288Z,0.20
2023-04-01T13:45:25.999Z,0.10
2023-04-01T13:48:05.926Z,0.10
2023-04-01T13:50:55.294Z,0.10
2023-04-01T13:53:43.792Z,0.17
2023-04-01T13:56:41.903Z,0.20
2023-04-01T13:59:23.878Z,0.30
2023-04-01T14:02:42.237Z,0.20
2023-04-01T14:05:39.835Z,0.20
2023-04-01T14:08:27.371Z,0.10
2023-04-01T14:11:10.779Z,0.10
2023-04-01T14:14:03.478Z,0.30
2023-04-01T14:16:48.883Z,0.10
2023-04-01T14:19:30.947Z,0.10
2023-04-01T14:22:00.861Z,0.20
2023-04-01T14:24:56.147Z,0.20
2023-04-01T14:27:31.603Z,0.10
2023-04-01T14:30:39.878Z,0.20
2023-04-01T14:33:33.838Z,0.30
2023-04-01T14:36:29.616Z,0.13
2023-04-01T14:39:20.681Z,0.20
2023-04-01T14:42:22.066Z,0.27
2023-04-01T14:45:30.392Z,0.20
2023-04-01T14:48:08.822Z,0.10
2023-04-01T14:50:48.764Z,0.20
2023-04-01T14:53:29.058Z,0.20
2023-04-01T14:56:00.964Z,0.20
2023-04-01T14:58:51.561Z,0.50
2023-04-01T15:01:43.626Z,0.30
2023-04-01T15:04:48.103Z,0.40
2023-04-01T15:07:28.429Z,0.20
2023-04-01T15:10:34.130Z,0.23
2023-04-01T15:13:23.224Z,0.40
2023-04-01T15:16:07.999Z,0.10
2023-04-01T15:19:02.268Z,0.30
2023-04-01T15:22:02.889Z,0.10
2023-04-01T15:25:03.954Z,0.50
2023-04-01T15:27:45.734Z,0.30
2023-04-01T15:30:35.120Z,0.30
2023-04-01T15:33:30.666Z,0.10
2023-04-01T15:36:03.345Z,0.50
2023-04-01T15:38:51.280Z,0.30
2023-04-01T15:41:40.828Z,0.27
2023-04-01T15:44:34.971Z,0.43
2023-04-01T15:47:07.136Z,0.30
2023-04-01T15:49:41.896Z,0.30
2023-04-01T15:52:16.554Z,0.30
2023-04-01T15:55:08.020Z,0.33
2023-04-01T15:57:53.328Z,0.40
2023-04-01T16:00:28.865Z,0.30
2023-04-01T16:03:17.116Z,0.30
2023-04-01T16:06:00.390Z,0.60
2023-04-01T16:08:50.487Z,0.40
2023-04-01T16:11:44.294Z,0.30
2023-04-01T16:14:35.222Z,0.60
2023-04-01T16:17:28.611Z,0.20
2023-04-01T16:20:20.027Z,0.30
2023-04-01T16:22:55.962Z,0.30
2023-04-01T16:25:40.654Z,1.13
2023-04-01T16:28:22.217Z,0.93
2023-04-01T16:31:08.336Z,0.47
2023-04-01T16:33:58.530Z,0.60
2023-04-01T16:36:30.742Z,0.40
2023-04-01T16:39:06.178Z,0.80
2023-04-01T16:41:36.838Z,0.50
2023-04-01T16:44:28.140Z,0.40
2023-04-01T16:47:07.226Z,1.00
2023-04-01T16:49:56.541Z,0.73
2023-04-01T16:53:03.651Z,0.40
2023-04-01T16:55:42.127Z,0.70
2023-04-01T16:58:11.304Z,0.40
2023-04-01T17:00:40.274Z,0.60
2023-04-01T17:03:18.196Z,0.60
2023-04-01T17:05:56.877Z,0.70
2023-04-01T17:08:32.566Z,0.60
2023-04-01T17:11:21.922Z,0.53
2023-04-01T17:14:07.300Z,0.50
2023-04-01T17:16:49.534Z,0.30
2023-04-01T17:19:42.411Z,0.30
2023-04-01T17:22:22.731Z,0.60
2023-04-01T17:25:05.497Z,0.57
2023-04-01T17:27:46.355Z,0.20
2023-04-01T17:30:31.765Z,0.80
2023-04-01T17:33:36.849Z,0.50
2023-04-01T17:36:10.460Z,0.60
2023-04-01T17:39:02.447Z,0.47
2023-04-01T17:41:37.477Z,0.50
2023-04-01T17:44:06.927Z,0.37
2023-04-01T17:46:46.139Z,0.60
2023-04-01T17:49:31.479Z,0.60
2023-04-01T17:52:22.741Z,0.70
2023-04-01T17:55:18.384Z,0.30
2023-04-01T17:57:56.853Z,0.60
2023-04-01T18:00:54.302Z,0.57
2023-04-01T18:03:24.414Z,0.50
2023-04-01T18:06:12.189Z,0.80
2023-04-01T18:09:03.707Z,0.30
2023-04-01T18:11:53.846Z,0.50
2023-04-01T18:14:32.339Z,0.50
2023-04-01T18:17:20.694Z,0.43
2023-04-01T18:20:06.569Z,0.80
2023-04-01T18:22:59.167Z,0.40
2023-04-01T18:25:55.041Z,0.50
2023-04-01T18:28:43.234Z,0.60
2023-04-01T18:31:22.538Z,0.40
2023-04-01T18:34:04.378Z,0.57
2023-04-01T18:36:43.098Z,0.70
2023-04-01T18:39:36.727Z,0.60
2023-04-01T18:42:42.133Z,0.60
2023-04-01T18:45:23.758Z,0.70
2023-04-01T18:48:09.435Z,0.60
2023-04-01T18:50:54.252Z,0.40
2023-04-01T18:53:43.589Z,0.40
2023-04-01T18:56:15.359Z,0.70
2023-04-01T18:59:04.244Z,0.53
2023-04-01T19:01:43.960Z,0.40
2023-04-01T19:04:36.936Z,0.50
2023-04-01T19:07:42.311Z,0.50
2023-04-01T19:10:22.773Z,0.47
2023-04-01T19:13:30.662Z,0.70
2023-04-01T19:16:29.760Z,0.47
2023-04-01T19:19:23.451Z,0.50
2023-04-01T19:21:53.828Z,0.67
2023-04-01T19:24:42.132Z,0.60
2023-04-01T19:27:20.776Z,0.67
2023-04-01T19:30:16.156Z,0.60
2023-04-01T19:33:20.724Z,0.70
2023-04-01T19:35:59.039Z,0.90
2023-04-01T19:38:40.082Z,0.60
2023-04-01T19:41:45.279Z,0.60
2023-04-01T19:44:38.841Z,0.40
2023-04-01T19:47:39.778Z,0.80
2023-04-01T19:50:17.075Z,0.80
2023-04-01T19:52:44.506Z,0.77
2023-04-01T19:55:20.046Z,0.90
2023-04-01T19:57:52.416Z,0.60
2023-04-01T20:00:42.435Z,0.73
2023-04-01T20:03:21.050Z,0.63
2023-04-01T20:05:56.592Z,0.80
2023-04-01T20:08:37.464Z,0.67
2023-04-01T20:11:06.891Z,0.70
2023-04-01T20:13:50.304Z,0.50
2023-04-01T20:16:17.594Z,0.80
2023-04-01T20:18:52.630Z,0.80
2023-04-01T20:21:29.304Z,0.70
2023-04-01T20:24:07.241Z,0.60
2023-04-01T20:26:38.516Z,0.30
2023-04-01T20:29:44.675Z,0.70
2023-04-01T20:32:23.663Z,0.50
2023-04-01T20:35:33.166Z,0.50
2023-04-01T20:38:18.777Z,0.50
2023-04-01T20:40:51.046Z,0.53
2023-04-01T20:43:25.414Z,0.60
2023-04-01T20:45:57.454Z,0.50
2023-04-01T20:48:53.222Z,0.50
2023-04-01T20:51:25.620Z,0.47
2023-04-01T20:54:24.855Z,0.70
2023-04-01T20:57:20.704Z,0.50
2023-04-01T21:00:22.726Z,0.80
2023-04-01T21:03:16.314Z,0.70
2023-04-01T21:06:16.760Z,0.50
2023-04-01T21:09:09.920Z,0.70
2023-04-01T21:12:01.216Z,0.77
2023-04-01T21:14:51.420Z,0.70
2023-04-01T21:17:39.804Z,0.70
2023-04-01T21:20:10.487Z,0.80
2023-04-01T21:22:42.315Z,0.93
2023-04-01T21:25:12.566Z,1.00
2023-04-01T21:27:57.203Z,0.90
2023-04-01T21:31:04.211Z,0.80
2023-04-01T21:33:52.936Z,1.17
2023-04-01T21:37:05.163Z,0.60
2023-04-01T21:39:31.826Z,0.70
2023-04-01T21:42:26.775Z,0.70
2023-04-01T21:45:02.190Z,0.80
2023-04-01T21:48:04.514Z,0.70
2023-04-01T21:50:48.388Z,1.00
2023-04-01T21:53:23.733Z,0.60
2023-04-01T21:56:12.242Z,0.77
2023-04-01T21:59:16.230Z,0.70
2023-04-01T22:02:16.892Z,0.67
2023-04-01T22:04:59.732Z,0.47
2023-04-01T22:07:48.879Z,1.30
2023-04-01T22:10:27.425Z,1.00
2023-04-01T22:12:57.344Z,0.60
2023-04-01T22:16:02.200Z,0.77
2023-04-01T22:19:00.686Z,0.80
2023-04-01T22:21:45.811Z,0.60
2023-04-01T22:24:33.955Z,0.70
2023-04-01T22:27:22.342Z,0.60
2023-04-01T22:30:16.180Z,0.83
2023-04-01T22:32:52.104Z,0.80
2023-04-01T22:35:28.903Z,0.67
2023-04-01T22:38:12.897Z,0.60
2023-04-01T22:40:52.515Z,0.67
2023-04-01T22:43:46.177Z,0.60
2023-04-01T22:46:39.638Z,0.70
2023-04-01T22:49:24.800Z,0.60
2023-04-01T22:52:27.114Z,0.40
2023-04-01T22:54:58.944Z,0.50
2023-04-01T22:57:31.564Z,0.60
2023-04-01T23:00:10.875Z,0.60
2023-04-01T23:02:41.061Z,0.77
2023-04-01T23:05:14.445Z,0.60
2023-04-01T23:07:47.390Z,0.53
2023-04-01T23:10:37.821Z,0.70
2023-04-01T23:13:06.528Z,0.70
2023-04-01T23:15:34.198Z,0.83
2023-04-01T23:18:23.034Z,0.80
2023-04-01T23:21:12.097Z,0.70
2023-04-01T23:24:03.072Z,0.90
2023-04-01T23:26:35.879Z,0.93
2023-04-01T23:29:03.996Z,1.00
2023-04-01T23:31:37.183Z,1.10
2023-04-01T23:34:27.279Z,0.83
2023-04-01T23:36:58.841Z,1.00
2023-04-01T23:39:39.405Z,0.90
2023-04-01T23:42:28.323Z,1.00
2023-04-01T23:44:58.147Z,0.80
2023-04-01T23:47:31.268Z,1.20
2023-04-01T23:50:04.451Z,1.10
2023-04-01T23:52:37.311Z,1.00
2023-04-01T23:55:26.119Z,1.03
2023-04-01T23:58:12.016Z,1.13
